Petteway, Texas
Current Conditions -  °F | °C
As of 6:55 AM on Tuesday 21 Oct 2014 (Local Time) from KLHB Reporting Station
Haze Haze  
Wind Chill: 53°   Ceiling: Unl
Heat Index: 53°   Visibility: 5mi
Dew Point: 53°   Wind: 0mph
Humidity: 99%   Direction: NA
Pressure: 30.07"   Gusts: NA
Location:  31.1274°N, 96.6627°W
Report Text: KLHB 211155Z AUTO 00000KT 5SM BR CLR 12/11 A3007 RMK AO2 T01160114 10182 20116
Loading
Personal Weather Stations






























Interactive Weather Map
Tropical Storm Tracking
New forecast layout! Learn more

10-Day Weather Forecast

Advertisements
Track Severe Weather on mobile